createdAt,value
2018-02-06T00:02:03.207Z,1.0
2018-02-06T00:07:03.448Z,1.0
2018-02-06T00:12:02.849Z,1.0
2018-02-06T00:17:03.069Z,0.9
2018-02-06T00:22:03.567Z,0.7
2018-02-06T00:27:03.534Z,0.7
2018-02-06T00:32:03.711Z,0.7
2018-02-06T00:37:03.520Z,0.8
2018-02-06T00:42:03.486Z,0.8
2018-02-06T00:47:03.693Z,0.8
2018-02-06T00:52:02.974Z,1.0
2018-02-06T00:57:03.073Z,0.9
2018-02-06T01:02:03.185Z,1.0
2018-02-06T01:07:03.447Z,1.2
2018-02-06T01:12:03.707Z,1.2
2018-02-06T01:17:02.938Z,1.3
2018-02-06T01:22:03.837Z,1.3
2018-02-06T01:27:02.835Z,1.3
2018-02-06T01:32:03.119Z,1.3
2018-02-06T01:37:03.048Z,1.3
2018-02-06T01:42:03.234Z,1.3
2018-02-06T01:47:03.074Z,1.1
2018-02-06T01:52:03.465Z,1.0
2018-02-06T01:57:03.324Z,0.9
2018-02-06T02:02:03.499Z,0.8
2018-02-06T02:07:03.322Z,0.8
2018-02-06T02:12:03.637Z,0.8
2018-02-06T02:17:02.752Z,0.7
2018-02-06T02:22:02.968Z,0.6
2018-02-06T02:27:02.962Z,0.5
2018-02-06T02:32:03.186Z,0.4
2018-02-06T02:37:03.107Z,0.4
2018-02-06T04:42:03.460Z,1.7
2018-02-06T04:47:03.946Z,1.8
2018-02-06T04:52:02.728Z,1.8
2018-02-06T04:57:02.881Z,1.8
2018-02-06T05:02:03.033Z,1.8
2018-02-06T05:07:03.179Z,1.8
2018-02-06T05:12:03.475Z,1.6
2018-02-06T05:17:03.622Z,1.7
2018-02-06T05:22:02.817Z,1.6
2018-02-06T05:27:02.987Z,1.8
2018-02-06T05:32:03.289Z,1.8
2018-02-06T05:37:03.240Z,1.8
2018-02-06T05:42:03.202Z,1.8
2018-02-06T05:47:03.690Z,1.9
2018-02-06T05:52:03.427Z,1.8
2018-02-06T05:57:03.467Z,1.9
2018-02-06T06:02:04.289Z,1.9
2018-02-06T06:07:02.850Z,1.9
2018-02-06T06:12:03.175Z,1.9
2018-02-06T06:17:07.287Z,1.9
2018-02-06T06:22:03.387Z,1.9
2018-02-06T06:27:03.677Z,1.8
2018-02-06T06:32:22.864Z,1.9
2018-02-06T06:37:03.170Z,1.8
2018-02-06T06:42:02.753Z,1.8
2018-02-06T06:47:12.354Z,1.7
2018-02-06T06:52:03.475Z,1.8
2018-02-06T06:57:02.698Z,1.8
2018-02-06T07:02:13.340Z,1.7
2018-02-06T07:07:03.347Z,1.7
2018-02-06T07:12:03.593Z,1.7
2018-02-06T07:17:13.142Z,1.7
2018-02-06T07:22:03.066Z,1.7
2018-02-06T07:27:03.293Z,1.6
2018-02-06T07:32:13.916Z,1.7
2018-02-06T07:37:02.647Z,1.8
2018-02-06T07:42:02.817Z,1.7
2018-02-06T07:47:13.320Z,2.0
2018-02-06T07:52:03.185Z,2.3
2018-02-06T07:57:03.397Z,2.6
2018-02-06T08:02:13.871Z,2.8
2018-02-06T08:07:03.013Z,2.8
2018-02-06T08:12:03.371Z,3.0
2018-02-06T08:17:13.727Z,3.0
2018-02-06T08:22:02.800Z,3.1
2018-02-06T08:27:03.033Z,3.2
2018-02-06T08:32:13.722Z,2.8
2018-02-06T08:37:03.446Z,3.0
2018-02-06T08:42:02.739Z,3.2
2018-02-06T08:47:13.392Z,3.7
2018-02-06T08:52:03.130Z,4.2
2018-02-06T08:57:03.354Z,4.3
2018-02-06T09:02:13.835Z,5.2
2018-02-06T09:07:02.773Z,5.4
2018-02-06T09:12:02.831Z,5.4
2018-02-06T09:17:13.514Z,5.4
2018-02-06T09:22:03.210Z,5.3
2018-02-06T09:27:02.795Z,4.9
2018-02-06T09:32:13.271Z,4.9
2018-02-06T09:37:03.186Z,4.9
2018-02-06T09:42:03.269Z,4.9
2018-02-06T09:47:13.753Z,5.1
2018-02-06T09:52:02.550Z,5.1
2018-02-06T09:57:03.555Z,5.2
2018-02-06T10:02:13.207Z,5.4
2018-02-06T10:07:03.153Z,6.4
2018-02-06T10:12:03.505Z,6.4
2018-02-06T10:17:14.180Z,7.8
2018-02-06T10:22:02.915Z,7.7
2018-02-06T10:27:03.124Z,8.8
2018-02-06T10:32:13.794Z,8.7
2018-02-06T10:37:03.605Z,9.1
2018-02-06T10:42:02.649Z,9.9
2018-02-06T10:47:13.438Z,10.0
2018-02-06T10:52:03.094Z,10.0
2018-02-06T10:57:03.361Z,10.6
2018-02-06T11:02:14.053Z,10.6
2018-02-06T11:07:02.934Z,10.4
2018-02-06T11:12:03.085Z,10.4
2018-02-06T11:17:13.704Z,10.0
2018-02-06T11:22:03.561Z,9.6
2018-02-06T11:27:03.738Z,9.5
2018-02-06T11:32:13.535Z,9.5
2018-02-06T11:37:03.604Z,9.3
2018-02-06T11:42:02.768Z,9.3
2018-02-06T11:47:13.462Z,9.6
2018-02-06T11:52:03.211Z,9.6
2018-02-06T11:57:03.432Z,9.6
2018-02-06T12:02:13.960Z,9.5
2018-02-06T12:07:02.980Z,9.3
2018-02-06T12:12:03.272Z,9.3
2018-02-06T12:17:13.987Z,9.4
2018-02-06T12:22:02.745Z,9.4
2018-02-06T12:27:02.919Z,10.0
2018-02-06T12:32:17.909Z,10.0
2018-02-06T12:37:03.327Z,10.4
2018-02-06T12:42:03.513Z,10.8
2018-02-06T12:47:13.173Z,10.7
2018-02-06T12:52:02.915Z,10.9
2018-02-06T12:57:03.068Z,10.9
2018-02-06T13:02:13.307Z,11.1
2018-02-06T13:07:03.143Z,11.2
2018-02-06T13:12:03.528Z,11.4
2018-02-06T13:17:14.208Z,11.7
2018-02-06T13:22:02.829Z,11.8
2018-02-06T13:27:02.837Z,12.1
2018-02-06T13:32:13.530Z,12.0
2018-02-06T13:37:03.248Z,12.4
2018-02-06T13:42:03.421Z,12.8
2018-02-06T13:47:14.107Z,13.0
2018-02-06T13:52:02.779Z,13.1
2018-02-06T13:57:02.964Z,13.3
2018-02-06T14:02:13.943Z,13.7
2018-02-06T14:07:02.846Z,14.4
2018-02-06T14:12:03.211Z,15.0
2018-02-06T14:17:13.859Z,15.5
2018-02-06T14:22:03.572Z,15.4
2018-02-06T14:27:02.710Z,16.2
2018-02-06T14:32:13.250Z,16.2
2018-02-06T14:37:03.097Z,17.1
2018-02-06T14:42:03.144Z,18.6
2018-02-06T14:47:13.860Z,19.3
2018-02-06T14:52:03.492Z,19.2
2018-02-06T14:57:02.685Z,20.0
2018-02-06T15:02:13.738Z,20.5
2018-02-06T15:07:02.835Z,20.8
2018-02-06T15:12:02.982Z,21.2
2018-02-06T15:17:13.478Z,21.2
2018-02-06T15:22:03.498Z,21.1
2018-02-06T15:27:03.614Z,20.6
2018-02-06T15:32:21.493Z,20.5
2018-02-06T15:37:03.494Z,19.8
2018-02-06T15:42:03.562Z,19.8
2018-02-06T15:47:13.155Z,19.7
2018-02-06T15:52:02.847Z,18.5
2018-02-06T15:57:03.003Z,18.5
2018-02-06T16:02:21.275Z,18.0
2018-02-06T16:07:03.372Z,14.6
2018-02-06T16:12:02.767Z,13.3
2018-02-06T16:17:13.484Z,13.3
2018-02-06T16:22:03.145Z,10.4
2018-02-06T16:27:03.396Z,10.3
2018-02-06T16:32:13.799Z,9.2
2018-02-06T16:37:03.404Z,8.2
2018-02-06T16:42:02.903Z,7.4
2018-02-06T16:47:13.833Z,6.1
2018-02-06T16:52:02.692Z,5.7
2018-02-06T16:57:02.987Z,5.6
2018-02-06T17:02:13.849Z,4.7
2018-02-06T17:07:03.432Z,4.3
2018-02-06T17:12:02.884Z,4.0
2018-02-06T17:17:07.520Z,4.0
2018-02-06T17:22:03.344Z,3.7
2018-02-06T17:27:03.428Z,3.3
2018-02-06T17:32:03.643Z,3.2
2018-02-06T17:37:02.752Z,3.0
2018-02-06T17:42:02.890Z,3.0
2018-02-06T17:47:03.100Z,2.9
2018-02-06T17:52:03.177Z,2.8
2018-02-06T17:57:03.127Z,2.7
2018-02-06T18:02:03.379Z,2.7
2018-02-06T18:07:03.596Z,2.6
2018-02-06T18:12:02.854Z,2.5
2018-02-06T18:17:04.312Z,2.5
2018-02-06T18:22:03.218Z,2.4
2018-02-06T18:27:03.250Z,2.4
2018-02-06T18:32:03.346Z,2.2
2018-02-06T18:37:03.531Z,2.2
2018-02-06T18:42:03.536Z,2.2
2018-02-06T18:47:03.422Z,2.3
2018-02-06T18:52:03.039Z,2.2
2018-02-06T18:57:03.084Z,2.2
2018-02-06T19:02:03.483Z,2.3
2018-02-06T19:07:03.326Z,2.3
2018-02-06T19:12:03.651Z,2.3
2018-02-06T19:17:03.334Z,2.3
2018-02-06T19:22:03.186Z,2.3
2018-02-06T19:27:03.162Z,2.2
2018-02-06T19:32:03.435Z,2.3
2018-02-06T19:37:03.439Z,2.2
2018-02-06T19:42:03.475Z,2.1
2018-02-06T19:47:03.661Z,2.1
2018-02-06T19:52:02.941Z,2.0
2018-02-06T19:57:03.014Z,2.0
2018-02-06T20:02:03.088Z,1.9
2018-02-06T20:07:03.465Z,1.9
2018-02-06T20:12:03.595Z,1.9
2018-02-06T20:17:03.861Z,1.8
2018-02-06T20:22:02.971Z,1.8
2018-02-06T20:27:03.066Z,1.7
2018-02-06T20:32:03.188Z,1.7
2018-02-06T20:37:03.406Z,1.7
2018-02-06T20:42:03.271Z,1.6
2018-02-06T20:47:03.646Z,1.5
2018-02-06T20:52:03.456Z,1.6
2018-02-06T20:57:03.609Z,1.6
2018-02-06T21:02:02.772Z,1.6
2018-02-06T21:07:03.195Z,1.5
2018-02-06T21:12:03.305Z,1.5
2018-02-06T21:17:03.504Z,1.5
2018-02-06T21:22:03.550Z,1.4
2018-02-06T21:27:03.805Z,1.4
2018-02-06T21:32:04.047Z,1.5
2018-02-06T21:37:02.942Z,1.5
2018-02-06T21:42:03.081Z,1.4
2018-02-06T21:47:03.180Z,1.3
2018-02-06T21:52:03.174Z,1.3
2018-02-06T21:57:03.332Z,1.3
2018-02-06T22:02:03.476Z,1.2
2018-02-06T22:07:03.740Z,1.3
2018-02-06T22:12:02.977Z,1.2
2018-02-06T22:17:03.256Z,1.2
2018-02-06T22:22:03.236Z,1.2
2018-02-06T22:27:03.400Z,1.1
2018-02-06T22:32:03.452Z,1.0
2018-02-06T22:37:03.562Z,1.0
2018-02-06T22:42:02.797Z,1.0
2018-02-06T22:47:02.950Z,1.0
2018-02-06T22:52:03.120Z,1.0
2018-02-06T22:57:03.050Z,1.0
2018-02-06T23:02:03.293Z,1.0
2018-02-06T23:07:03.066Z,0.9
2018-02-06T23:12:03.263Z,0.8
2018-02-06T23:22:03.744Z,0.8
2018-02-06T23:27:03.469Z,0.7
2018-02-06T23:32:03.611Z,0.8
2018-02-06T23:37:02.850Z,0.8
2018-02-06T23:42:02.996Z,0.8
2018-02-06T23:47:03.135Z,0.7
2018-02-06T23:52:03.022Z,0.7
2018-02-06T23:57:03.120Z,0.7
